Latest Weather Observations for Cape Bruny AWS

IDT60901

Issued at 11:41 am EST Saturday 29 April 2017 (issued every 10 minutes, with the page automatically refreshed every 10 minutes)

About weather observations | Map of Hobart area stations | Latest observations for Hobart area | Other Formats
Station Details ID: 094198 Name: CAPE BRUNY (CAPE BRUNY) Lat: -43.49 Lon: 147.14 Height: 59.7 m
Data from the previous 72 hours. | See also: Recent months at Cape Bruny AWS
Date/Time
EST
Temp
°C
App
Temp
°C
Dew
Point
°C
Rel
Hum
%
Delta-T
°C
Wind Press
QNH
hPa
Press
MSL
hPa
Rain since
9am
mm
Dir  Spd
km/h
Gust
km/h
Spd
kts
Gust
kts
29/11:30am 13.1 7.0 9.9 81 1.6 WSW 32 46 17 25 1017.6 1017.6 0.4
29/11:00am 11.8 3.9 9.5 86 1.2 WSW 41 54 22 29 1017.2 1017.2 0.4
29/10:30am 12.1 4.4 10.3 89 0.9 WSW 41 50 22 27 1016.8 1016.8 0.4
29/10:00am 11.7 3.6 9.9 89 0.9 WSW 43 54 23 29 1016.4 1016.4 0.4
29/09:44am 11.7 5.1 9.9 89 0.9 WSW 35 54 19 29 1016.2 1016.2 0.4
29/09:30am 11.8 3.7 10.2 90 0.8 WSW 43 52 23 28 1016.0 1016.0 0.4
29/09:00am 12.0 4.6 9.7 86 1.2 W 39 52 21 28 1015.6 1015.6 1.0
29/08:30am 11.5 4.1 9.8 89 0.9 W 39 54 21 29 1015.1 1015.1 1.0
29/08:04am 11.2 2.0 9.6 90 0.8 W 48 67 26 36 1014.4 1014.4 1.0
29/08:00am 11.2 2.0 9.6 90 0.8 WSW 48 63 26 34 1014.4 1014.4 1.0
29/07:30am 11.8 5.1 9.7 87 1.1 W 35 46 19 25 1014.0 1014.0 0.2
29/07:06am 11.5 4.0 9.4 87 1.1 W 39 57 21 31 1013.5 1013.5 0.2
29/07:00am 11.8 3.9 9.5 86 1.2 W 41 56 22 30 1013.5 1013.5 0.2
29/06:59am 11.8 3.9 9.4 85 1.2 W 41 56 22 30 1013.5 1013.5 0.2
29/06:30am 12.0 1.2 9.2 83 1.4 WSW 56 74 30 40 1012.8 1012.8 0.2
29/06:18am 11.6 2.0 9.3 86 1.2 WSW 50 69 27 37 1012.5 1012.5 0.2
29/06:00am 11.7 3.2 9.4 86 1.2 WSW 44 57 24 31 1012.3 1012.3 0.0
29/05:30am 12.1 3.8 9.5 84 1.3 WSW 43 56 23 30 1012.1 1012.1 0.0
29/05:00am 12.1 2.8 9.1 82 1.5 WSW 48 61 26 33 1011.5 1011.5 0.0
29/04:34am 12.5 3.7 9.5 82 1.5 WSW 46 65 25 35 1011.0 1011.0 0.0
29/04:30am 12.7 4.3 9.7 82 1.5 WSW 44 57 24 31 1011.1 1011.1 0.0
29/04:00am 12.7 5.6 9.7 82 1.5 WSW 37 52 20 28 1010.9 1010.9 0.0
29/03:34am 13.2 7.2 8.7 74 2.3 WSW 30 52 16 28 1010.4 1010.4 0.0
29/03:30am 13.4 8.3 9.1 75 2.2 WSW 26 41 14 22 1010.4 1010.4 0.0
29/03:00am 13.4 8.8 8.3 71 2.5 W 22 35 12 19 1010.2 1010.2 0.0
29/02:30am 13.3 6.4 8.8 74 2.3 W 35 48 19 26 1010.1 1010.1 0.0
29/02:00am 13.1 6.2 9.0 76 2.1 WSW 35 54 19 29 1010.3 1010.3 0.0
29/01:55am 13.0 6.6 9.3 78 1.9 WSW 33 52 18 28 1010.3 1010.3 0.0
29/01:30am 13.6 8.0 8.9 73 2.4 W 28 39 15 21 1010.0 1010.0 0.0
29/01:04am 13.6 5.1 8.4 71 2.6 W 43 61 23 33 1009.9 1009.9 0.0
29/01:00am 13.7 5.2 9.2 74 2.3 W 44 61 24 33 1009.8 1009.8 0.0
29/12:30am 13.6 4.0 9.6 77 2.1 WSW 50 69 27 37 1009.8 1009.8 0.0
29/12:21am 13.5 4.3 9.6 77 2.0 WSW 48 69 26 37 1009.6 1009.6 0.0
29/12:00am 13.2 3.9 10.6 84 1.4 WSW 50 61 27 33 1009.6 1009.6 0.0
 
Date/Time
EST
Temp
°C
App
Temp
°C
Dew
Point
°C
Rel
Hum
%
Delta-T
°C
Wind Press
QNH
hPa
Press
MSL
hPa
Rain since
9am
mm
Dir  Spd
km/h
Gust
km/h
Spd
kts
Gust
kts
28/11:36pm 12.8 5.3 10.9 88 1.0 WSW 41 61 22 33 1009.3 1009.3 0.0
28/11:30pm 12.8 5.7 10.9 88 1.0 WSW 39 54 21 29 1009.6 1009.6 0.0
28/11:11pm 13.1 8.2 11.2 88 1.0 WSW 28 48 15 26 1009.8 1009.8 0.0
28/11:00pm 13.1 8.9 11.2 88 1.0 WSW 24 35 13 19 1009.8 1009.8 0.0
28/10:30pm 13.3 10.3 10.7 84 1.4 SW 17 24 9 13 1009.7 1009.7 0.0
28/10:00pm 14.5 9.0 10.5 77 2.1 W 30 39 16 21 1009.6 1009.6 0.0
28/09:30pm 14.4 10.8 10.6 78 2.0 WSW 20 35 11 19 1009.4 1009.4 0.0
28/09:00pm 14.6 10.3 10.8 78 2.0 W 24 32 13 17 1009.6 1009.6 0.0
28/08:30pm 13.9 9.5 10.5 80 1.8 WSW 24 32 13 17 1009.5 1009.5 0.0
28/08:00pm 15.0 9.7 10.0 72 2.6 WSW 28 43 15 23 1009.5 1009.5 0.0
28/07:56pm 15.4 9.3 10.4 72 2.6 W 33 46 18 25 1009.6 1009.6 0.0
28/07:30pm 15.4 7.2 9.7 69 3.0 WNW 43 61 23 33 1009.1 1009.1 0.0
28/07:04pm 15.3 8.9 9.4 68 3.0 WNW 33 56 18 30 1009.1 1009.1 0.0
28/07:00pm 15.3 9.0 9.7 69 2.9 WNW 33 46 18 25 1009.3 1009.3 0.0
28/06:36pm 15.3 7.4 9.4 68 3.0 WNW 41 65 22 35 1009.2 1009.2 0.0
28/06:30pm 15.1 7.3 9.7 70 2.8 WNW 41 56 22 30 1009.3 1009.3 0.0
28/06:00pm 15.0 5.8 9.4 69 2.9 WNW 48 59 26 32 1009.2 1009.2 0.0
28/05:35pm 15.0 7.8 9.1 68 3.0 WNW 37 59 20 32 1009.2 1009.2 0.0
28/05:30pm 14.8 7.3 9.4 70 2.8 WNW 39 54 21 29 1009.2 1009.2 0.0
28/05:00pm 15.3 8.8 8.8 65 3.3 WNW 33 52 18 28 1009.4 1009.4 0.0
28/04:37pm 15.6 9.2 8.6 63 3.6 WNW 32 50 17 27 1009.7 1009.7 0.0
28/04:30pm 15.6 9.8 8.1 61 3.8 WNW 28 41 15 22 1009.8 1009.8 0.0
28/04:00pm 16.3 10.5 7.8 57 4.3 WNW 28 41 15 22 1010.0 1010.0 0.0
28/03:30pm 16.6 8.6 7.5 55 4.6 WNW 39 50 21 27 1010.0 1010.0 0.0
28/03:00pm 16.9 9.4 8.1 56 4.5 WNW 37 52 20 28 1010.1 1010.1 0.0
28/02:30pm 17.0 7.9 6.8 51 5.1 WNW 44 61 24 33 1010.1 1010.1 0.0
28/02:25pm 17.1 8.8 7.7 54 4.8 W 41 61 22 33 1010.1 1010.1 0.0
28/02:00pm 18.0 12.2 9.6 58 4.4 W 30 39 16 21 1010.5 1010.5 0.0
28/01:30pm 17.9 13.9 9.0 56 4.6 WNW 20 30 11 16 1010.7 1010.7 0.0
28/01:00pm 16.8 10.9 9.0 60 4.0 WNW 30 41 16 22 1010.8 1010.8 0.0
28/12:52pm 16.5 11.3 9.0 61 3.9 WNW 26 41 14 22 1010.7 1010.7 0.0
28/12:30pm 16.1 13.8 9.1 63 3.6 NW 11 19 6 10 1011.4 1011.4 0.0
28/12:00pm 15.8 13.7 8.1 60 3.9 NW 9 13 5 7 1012.0 1012.0 0.0
28/11:30am 15.4 12.4 7.9 61 3.8 NW 13 22 7 12 1012.4 1012.4 0.0
28/11:00am 15.1 11.4 7.9 62 3.6 NW 17 22 9 12 1012.8 1012.8 0.0
28/10:30am 16.0 12.1 8.5 61 3.8 NW 19 24 10 13 1013.1 1013.1 0.0
28/10:00am 14.5 10.2 7.8 64 3.3 NW 20 28 11 15 1013.4 1013.4 0.0
28/09:30am 14.4 10.2 8.1 66 3.2 NW 20 26 11 14 1013.6 1013.6 0.0
28/09:00am 13.9 9.9 8.1 68 2.9 NW 19 24 10 13 1013.7 1013.7 0.0
28/08:30am 13.6 9.8 8.9 73 2.4 NNW 19 24 10 13 1014.0 1014.0 0.0
28/08:00am 11.9 8.3 8.2 78 1.8 NNW 17 20 9 11 1014.1 1014.1 0.0
28/07:30am 11.2 7.9 7.9 80 1.6 N 15 15 8 8 1013.9 1013.9 0.0
28/07:00am 11.7 8.4 8.0 78 1.8 NW 15 17 8 9 1013.9 1013.9 0.0
28/06:30am 12.1 7.7 8.9 81 1.6 W 22 28 12 15 1013.8 1013.8 0.0
28/06:00am 11.2 9.2 8.6 84 1.3 WNW 9 17 5 9 1013.9 1013.9 0.0
28/05:30am 11.6 8.5 9.0 84 1.3 WSW 15 20 8 11 1013.9 1013.9 0.0
28/05:00am 11.9 8.5 9.3 84 1.3 WSW 17 20 9 11 1013.9 1013.9 0.0
28/04:30am 12.0 8.1 9.4 84 1.3 WSW 20 28 11 15 1013.8 1013.8 0.0
28/04:00am 12.1 8.7 9.3 83 1.4 WSW 17 24 9 13 1013.7 1013.7 0.0
28/03:30am 12.3 7.6 9.3 82 1.5 WSW 24 32 13 17 1013.7 1013.7 0.0
28/03:00am 12.4 8.4 9.2 81 1.6 WSW 20 24 11 13 1013.6 1013.6 0.0
28/02:30am 12.6 7.1 9.1 79 1.8 WSW 28 35 15 19 1013.6 1013.6 0.0
28/02:00am 12.5 6.6 9.0 79 1.8 WSW 30 35 16 19 1013.5 1013.5 0.0
28/01:30am 12.8 6.1 9.6 81 1.6 WSW 35 46 19 25 1013.1 1013.1 0.0
28/01:00am 12.9 5.4 9.5 80 1.7 WSW 39 48 21 26 1013.2 1013.2 0.0
28/12:30am 13.1 6.0 9.7 80 1.7 WSW 37 46 20 25 1013.0 1013.0 0.0
28/12:19am 12.9 6.2 9.5 80 1.7 WSW 35 48 19 26 1013.1 1013.1 0.0
28/12:00am 13.1 9.0 10.1 82 1.6 WSW 22 30 12 16 1013.0 1013.0 0.0
 
Date/Time
EST
Temp
°C
App
Temp
°C
Dew
Point
°C
Rel
Hum
%
Delta-T
°C
Wind Press
QNH
hPa
Press
MSL
hPa
Rain since
9am
mm
Dir  Spd
km/h
Gust
km/h
Spd
kts
Gust
kts
27/11:30pm 13.0 9.6 10.4 84 1.4 W 19 26 10 14 1013.1 1013.1 0.0
27/11:00pm 13.1 8.8 10.8 86 1.2 W 24 33 13 18 1013.0 1013.0 0.0
27/10:30pm 13.0 8.6 10.5 85 1.3 W 24 33 13 18 1013.3 1013.3 0.0
27/10:00pm 13.5 9.1 10.3 81 1.7 WSW 24 32 13 17 1013.3 1013.3 0.0
27/09:30pm 13.9 7.6 9.1 73 2.4 WNW 32 43 17 23 1013.2 1013.2 0.0
27/09:00pm 14.0 5.6 9.0 72 2.5 WNW 43 57 23 31 1012.8 1012.8 0.0
27/08:30pm 13.8 6.5 8.8 72 2.5 WNW 37 54 20 29 1012.6 1012.6 0.0
27/08:01pm 13.5 7.0 8.1 70 2.7 WNW 32 50 17 27 1012.7 1012.7 0.0
27/08:00pm 13.5 6.8 8.1 70 2.7 WNW 33 50 18 27 1012.7 1012.7 0.0
27/07:30pm 13.4 6.8 7.8 69 2.8 NW 32 57 17 31 1012.7 1012.7 0.0
27/07:17pm 13.4 6.2 7.6 68 2.9 NW 35 54 19 29 1012.7 1012.7 0.0
27/07:00pm 13.2 6.6 7.9 70 2.6 WNW 32 46 17 25 1012.9 1012.9 0.0
27/06:33pm 12.9 5.6 7.1 68 2.8 NW 35 54 19 29 1013.2 1013.2 0.0
27/06:30pm 13.1 5.1 7.3 68 2.8 WNW 39 54 21 29 1013.1 1013.1 0.0
27/06:19pm 13.0 7.1 7.5 69 2.7 NW 28 50 15 27 1013.2 1013.2 0.0
27/06:00pm 12.3 7.3 6.6 68 2.7 NNW 22 35 12 19 1013.3 1013.3 0.0
27/05:30pm 12.5 7.2 7.0 69 2.7 NW 24 43 13 23 1013.0 1013.0 0.0
27/05:00pm 11.5 7.0 6.0 69 2.6 NNW 19 30 10 16 1013.7 1013.7 0.0
27/04:30pm 11.6 7.5 6.1 69 2.6 NNW 17 26 9 14 1013.8 1013.8 0.0
27/04:00pm 12.3 6.8 5.9 65 3.0 NW 24 39 13 21 1014.2 1014.2 0.0
27/03:30pm 12.9 6.4 6.3 64 3.1 WNW 30 37 16 20 1014.3 1014.3 0.0
27/03:00pm 12.7 5.5 5.8 63 3.2 WNW 33 44 18 24 1014.4 1014.4 0.0
27/02:30pm 12.5 5.3 6.1 65 3.0 WNW 33 44 18 24 1014.7 1014.7 0.0
27/02:00pm 12.1 4.9 4.8 61 3.3 WNW 32 44 17 24 1014.7 1014.7 0.0
27/01:30pm 12.7 5.4 5.6 62 3.3 WNW 33 44 18 24 1015.1 1015.1 0.0
27/01:00pm 13.2 6.3 4.6 56 4.0 WNW 30 37 16 20 1015.4 1015.4 0.0
27/12:30pm 12.8 5.4 4.8 58 3.7 WNW 33 43 18 23 1016.3 1016.3 0.0
27/12:00pm 12.8 7.4 4.5 57 3.8 WNW 22 30 12 16 1016.9 1016.9 0.0
27/11:30am 12.4 7.6 4.6 59 3.6 WNW 19 26 10 14 1017.3 1017.3 0.0
27/11:00am 12.5 7.9 5.4 62 3.3 WNW 19 26 10 14 1017.4 1017.4 0.0
27/10:30am 10.4 5.2 3.7 63 3.0 WNW 20 26 11 14 1018.1 1018.1 0.0
27/10:00am 10.8 5.4 4.7 66 2.8 WNW 22 28 12 15 1018.1 1018.1 0.0
27/09:30am 9.4 3.2 4.2 70 2.3 WNW 26 32 14 17 1018.4 1018.4 0.0
27/09:00am 9.4 3.7 4.8 73 2.1 WNW 24 32 13 17 1018.3 1018.3 4.6
27/08:30am 7.7 2.2 3.9 77 1.6 WNW 22 30 12 16 1017.9 1017.9 4.6
27/08:00am 8.1 2.7 4.3 77 1.7 WNW 22 32 12 17 1018.2 1018.2 4.6
27/07:30am 7.4 2.2 3.5 76 1.7 WNW 20 24 11 13 1017.9 1017.9 4.6
27/07:00am 7.7 -0.2 4.1 78 1.6 W 35 43 19 23 1017.8 1017.8 4.6
27/06:30am 7.5 0.3 4.8 83 1.2 WNW 32 39 17 21 1017.8 1017.8 4.6
27/06:00am 6.9 1.1 4.2 83 1.2 WNW 24 32 13 17 1017.9 1017.9 4.6
27/05:30am 7.0 1.9 4.0 81 1.3 W 20 26 11 14 1017.8 1017.8 4.6
27/05:00am 6.9 1.8 4.2 83 1.2 WNW 20 26 11 14 1017.6 1017.6 4.6
27/04:30am 7.2 1.5 4.7 84 1.1 WNW 24 30 13 16 1017.5 1017.5 4.6
27/04:00am 7.3 2.5 4.8 84 1.1 W 19 24 10 13 1017.4 1017.4 4.6
27/03:30am 6.5 1.0 4.2 85 1.0 WNW 22 33 12 18 1017.4 1017.4 4.4
27/03:00am 6.6 3.2 4.1 84 1.1 W 11 15 6 8 1017.4 1017.4 4.4
27/02:30am 7.4 1.2 4.5 82 1.3 W 26 32 14 17 1017.5 1017.5 3.8
27/02:05am 8.1 1.7 3.2 71 2.1 WSW 26 54 14 29 1017.5 1017.5 3.6
27/02:00am 8.4 3.0 2.6 67 2.4 SW 20 28 11 15 1017.7 1017.7 3.6
27/01:30am 8.2 4.5 2.2 66 2.5 SSW 11 22 6 12 1017.5 1017.5 3.6
27/01:00am 7.7 0.4 2.4 69 2.2 SW 30 50 16 27 1017.6 1017.6 3.6
27/12:59am 7.8 0.5 2.7 70 2.1 SW 30 50 16 27 1017.6 1017.6 3.6
27/12:30am 8.7 2.4 3.7 71 2.2 SSW 26 41 14 22 1017.3 1017.3 3.6
27/12:00am 8.5 2.6 1.6 62 2.8 SW 22 32 12 17 1017.1 1017.1 3.6
 
Date/Time
EST
Temp
°C
App
Temp
°C
Dew
Point
°C
Rel
Hum
%
Delta-T
°C
Wind Press
QNH
hPa
Press
MSL
hPa
Rain since
9am
mm
Dir  Spd
km/h
Gust
km/h
Spd
kts
Gust
kts
26/11:30pm 8.7 3.1 0.9 58 3.2 SW 20 30 11 16 1017.1 1017.1 3.6
26/11:00pm 8.4 2.8 1.3 61 2.9 SSW 20 39 11 21 1017.1 1017.1 3.6
26/10:30pm 8.9 3.1 -0.4 52 3.7 SW 20 32 11 17 1016.8 1016.8 3.6
26/10:00pm 9.1 2.8 -0.8 50 3.9 SW 22 35 12 19 1016.8 1016.8 3.6
26/09:30pm 8.9 2.7 2.3 63 2.8 S 24 41 13 22 1016.6 1016.6 3.6
26/09:00pm 8.8 2.6 -0.5 52 3.6 SW 22 33 12 18 1016.3 1016.3 3.6
26/08:30pm 7.7 3.6 2.2 68 2.3 SSW 13 19 7 10 1016.2 1016.2 3.6
26/08:00pm 8.2 0.8 2.0 65 2.6 SW 30 54 16 29 1016.0 1016.0 3.6
26/07:59pm 8.4 1.5 2.4 66 2.5 SW 28 54 15 29 1016.0 1016.0 3.6
26/07:30pm 8.4 2.1 3.5 71 2.1 SW 26 46 14 25 1015.6 1015.6 3.6
26/07:25pm 8.4 1.7 3.5 71 2.1 SW 28 46 15 25 1015.6 1015.6 3.6
26/07:00pm 8.8 2.0 3.2 68 2.4 SW 28 43 15 23 1015.0 1015.0 3.6
26/06:50pm 8.6 1.7 2.8 67 2.5 SW 28 50 15 27 1014.8 1014.8 3.6
26/06:30pm 8.6 2.5 2.6 66 2.5 S 24 41 13 22 1014.4 1014.4 3.6
26/06:00pm 8.6 2.6 3.4 70 2.2 SW 24 57 13 31 1013.8 1013.8 3.6
26/05:30pm 8.7 1.7 4.1 73 2.0 S 30 54 16 29 1013.3 1013.3 3.6
26/05:22pm 8.2 0.6 4.0 75 1.8 S 33 54 18 29 1013.0 1013.0 3.6
26/05:00pm 7.8 1.7 4.6 80 1.4 SSW 26 44 14 24 1012.8 1012.8 3.6
26/04:30pm 8.4 0.3 3.5 71 2.1 S 35 57 19 31 1012.4 1012.4 1.4
26/04:23pm 8.8 0.4 3.8 71 2.2 S 37 57 20 31 1012.2 1012.2 1.4
26/04:00pm 9.2 2.6 4.0 70 2.3 SW 28 46 15 25 1011.8 1011.8 1.4
26/03:30pm 7.6 0.7 4.6 81 1.3 SSW 30 54 16 29 1011.6 1011.6 1.4
26/03:29pm 7.5 0.6 4.5 81 1.3 SSW 30 54 16 29 1011.7 1011.7 1.4
26/03:18pm 7.8 -1.5 4.9 82 1.3 SW 43 61 23 33 1011.5 1011.5 0.6
26/03:00pm 8.7 -0.5 3.7 71 2.2 SW 41 59 22 32 1010.9 1010.9 0.2
26/02:32pm 10.9 4.2 3.9 62 3.1 SW 28 46 15 25 1010.4 1010.4 0.2
26/02:30pm 10.4 2.9 3.2 61 3.1 SW 32 48 17 26 1010.4 1010.4 0.2
26/02:00pm 10.4 3.2 3.0 60 3.2 SW 30 61 16 33 1009.8 1009.8 0.2
26/01:30pm 9.7 1.4 4.3 69 2.4 S 37 57 20 31 1009.5 1009.5 0.2
26/01:25pm 9.4 1.7 3.6 67 2.5 SSW 33 57 18 31 1009.5 1009.5 0.2
26/01:24pm 9.5 2.1 3.9 68 2.5 SSW 32 54 17 29 1009.6 1009.6 0.2
26/01:15pm 10.2 2.7 3.3 62 3.0 SW 32 50 17 27 1009.4 1009.4 0.2
26/01:00pm 10.3 1.8 3.1 61 3.1 SW 37 52 20 28 1009.1 1009.1 0.2
26/12:32pm 10.7 1.4 3.0 59 3.3 SW 41 59 22 32 1008.7 1008.7 0.2
26/12:30pm 10.8 1.2 3.4 60 3.3 SW 43 59 23 32 1008.7 1008.7 0.2
26/12:00pm 9.7 2.0 3.2 64 2.8 SW 33 61 18 33 1008.5 1008.5 0.2

Latest Capital City Observations: Canberra | Sydney | Melbourne | Brisbane | Adelaide | Perth | Hobart | Darwin

Other Formats:

Comma delimited format used in spreadsheet applications
http://www.bom.gov.au/fwo/IDT60901/IDT60901.95967.axf

JavaScript Object Notation format (JSON) in row-major order
http://www.bom.gov.au/fwo/IDT60901/IDT60901.95967.json